sensor_id;sensor_type;location;lat;lon;timestamp;pressure;altitude;pressure_sealevel;temperature;humidity
62025;BME280;47978;49.118;12.146;2022-10-31T00:01:32;97975.53;;;8.54;96.66
62025;BME280;47978;49.118;12.146;2022-10-31T00:03:59;97966.47;;;8.44;96.29
62025;BME280;47978;49.118;12.146;2022-10-31T00:06:25;97971.41;;;8.42;96.28
62025;BME280;47978;49.118;12.146;2022-10-31T00:08:53;97971.41;;;8.37;96.44
62025;BME280;47978;49.118;12.146;2022-10-31T00:11:21;97968.63;;;8.37;96.45
62025;BME280;47978;49.118;12.146;2022-10-31T00:13:49;97973.88;;;8.33;96.61
62025;BME280;47978;49.118;12.146;2022-10-31T00:16:16;97971.13;;;8.38;96.43
62025;BME280;47978;49.118;12.146;2022-10-31T00:18:44;97972.50;;;8.30;96.20
62025;BME280;47978;49.118;12.146;2022-10-31T00:21:15;97978.03;;;8.30;96.14
62025;BME280;47978;49.118;12.146;2022-10-31T00:23:42;97968.69;;;8.26;96.12
62025;BME280;47978;49.118;12.146;2022-10-31T00:26:08;97973.63;;;8.24;96.26
62025;BME280;47978;49.118;12.146;2022-10-31T00:28:35;97972.25;;;8.27;96.21
62025;BME280;47978;49.118;12.146;2022-10-31T00:31:06;97972.56;;;8.20;96.28
62025;BME280;47978;49.118;12.146;2022-10-31T00:33:33;97974.75;;;8.13;96.26
62025;BME280;47978;49.118;12.146;2022-10-31T00:36:00;97973.66;;;8.19;96.40
62025;BME280;47978;49.118;12.146;2022-10-31T00:38:27;97966.50;;;8.13;96.50
62025;BME280;47978;49.118;12.146;2022-10-31T00:40:53;97971.75;;;8.09;96.63
62025;BME280;47978;49.118;12.146;2022-10-31T00:43:20;97969.81;;;8.10;96.31
62025;BME280;47978;49.118;12.146;2022-10-31T00:45:47;97965.41;;;8.04;96.50
62025;BME280;47978;49.118;12.146;2022-10-31T00:48:15;97965.16;;;8.00;96.66
62025;BME280;47978;49.118;12.146;2022-10-31T00:50:41;97975.06;;;7.96;96.74
62025;BME280;47978;49.118;12.146;2022-10-31T00:53:08;97975.06;;;7.96;96.82
62025;BME280;47978;49.118;12.146;2022-10-31T00:55:35;97970.38;;;7.97;96.52
62025;BME280;47978;49.118;12.146;2022-10-31T00:58:01;97975.06;;;7.96;96.39
62025;BME280;47978;49.118;12.146;2022-10-31T01:00:29;97975.88;;;7.97;96.67
62025;BME280;47978;49.118;12.146;2022-10-31T01:02:55;97977.81;;;7.91;96.21
62025;BME280;47978;49.118;12.146;2022-10-31T01:05:24;97980.56;;;7.96;96.18
62025;BME280;47978;49.118;12.146;2022-10-31T01:07:50;97967.63;;;7.97;95.82
62025;BME280;47978;49.118;12.146;2022-10-31T01:10:17;97976.72;;;7.87;96.15
62025;BME280;47978;49.118;12.146;2022-10-31T01:12:45;97970.97;;;7.88;96.25
62025;BME280;47978;49.118;12.146;2022-10-31T01:15:14;97967.66;;;7.92;96.17
62025;BME280;47978;49.118;12.146;2022-10-31T01:17:41;97965.97;;;7.96;95.38
62025;BME280;47978;49.118;12.146;2022-10-31T01:20:09;97969.28;;;7.87;95.79
62025;BME280;47978;49.118;12.146;2022-10-31T01:22:38;97970.69;;;7.80;95.99
62025;BME280;47978;49.118;12.146;2022-10-31T01:25:06;97968.75;;;7.75;96.45
62025;BME280;47978;49.118;12.146;2022-10-31T01:27:33;97969.59;;;7.81;96.12
62025;BME280;47978;49.118;12.146;2022-10-31T01:30:00;97973.16;;;7.86;95.31
62025;BME280;47978;49.118;12.146;2022-10-31T01:32:27;97972.91;;;7.83;95.18
62025;BME280;47978;49.118;12.146;2022-10-31T01:34:54;97972.06;;;7.77;95.33
62025;BME280;47978;49.118;12.146;2022-10-31T01:37:20;97982.81;;;7.69;95.86
62025;BME280;47978;49.118;12.146;2022-10-31T01:39:49;97973.44;;;7.64;95.88
62025;BME280;47978;49.118;12.146;2022-10-31T01:42:18;97966.00;;;7.70;95.90
62025;BME280;47978;49.118;12.146;2022-10-31T01:44:52;97972.63;;;7.64;96.24
62025;BME280;47978;49.118;12.146;2022-10-31T01:47:24;97971.78;;;7.58;96.65
62025;BME280;47978;49.118;12.146;2022-10-31T01:49:57;97962.72;;;7.58;96.72
62025;BME280;47978;49.118;12.146;2022-10-31T01:52:30;97969.03;;;7.58;96.81
62025;BME280;47978;49.118;12.146;2022-10-31T01:55:02;97976.19;;;7.64;96.83
62025;BME280;47978;49.118;12.146;2022-10-31T01:57:29;97974.00;;;7.66;96.76
62025;BME280;47978;49.118;12.146;2022-10-31T02:00:00;97967.09;;;7.84;95.70
62025;BME280;47978;49.118;12.146;2022-10-31T02:02:29;97978.66;;;7.86;95.32
62025;BME280;47978;49.118;12.146;2022-10-31T02:04:58;97969.59;;;7.76;96.20
62025;BME280;47978;49.118;12.146;2022-10-31T02:07:31;97972.31;;;7.71;96.88
62025;BME280;47978;49.118;12.146;2022-10-31T02:10:02;97977.56;;;7.72;97.04
62025;BME280;47978;49.118;12.146;2022-10-31T02:12:30;97975.38;;;7.64;97.70
62025;BME280;47978;49.118;12.146;2022-10-31T02:14:58;97977.56;;;7.62;98.11
62025;BME280;47978;49.118;12.146;2022-10-31T02:17:25;97975.91;;;7.61;98.31
62025;BME280;47978;49.118;12.146;2022-10-31T02:19:56;97974.78;;;7.57;98.41
62025;BME280;47978;49.118;12.146;2022-10-31T02:22:30;97975.09;;;7.55;98.59
62025;BME280;47978;49.118;12.146;2022-10-31T02:25:18;97974.81;;;7.67;97.72
62025;BME280;47978;49.118;12.146;2022-10-31T02:28:05;97983.63;;;7.69;97.33
62025;BME280;47978;49.118;12.146;2022-10-31T02:30:41;97979.22;;;7.58;97.20
62025;BME280;47978;49.118;12.146;2022-10-31T02:33:20;97987.22;;;7.54;97.60
62025;BME280;47978;49.118;12.146;2022-10-31T02:35:56;97973.69;;;7.48;97.72
62025;BME280;47978;49.118;12.146;2022-10-31T02:38:33;97976.47;;;7.53;97.26
62025;BME280;47978;49.118;12.146;2022-10-31T02:41:12;97971.50;;;7.50;97.54
62025;BME280;47978;49.118;12.146;2022-10-31T02:43:49;97976.44;;;7.48;97.74
62025;BME280;47978;49.118;12.146;2022-10-31T02:46:25;97982.50;;;7.44;98.25
62025;BME280;47978;49.118;12.146;2022-10-31T02:48:57;97984.97;;;7.51;98.35
62025;BME280;47978;49.118;12.146;2022-10-31T02:51:27;97986.34;;;7.54;98.01
62025;BME280;47978;49.118;12.146;2022-10-31T02:53:53;97979.22;;;7.58;97.51
62025;BME280;47978;49.118;12.146;2022-10-31T02:56:20;97980.31;;;7.57;97.79
62025;BME280;47978;49.118;12.146;2022-10-31T02:58:50;97977.84;;;7.50;97.83
62025;BME280;47978;49.118;12.146;2022-10-31T03:01:25;97985.53;;;7.58;97.64
62025;BME280;47978;49.118;12.146;2022-10-31T03:04:31;97986.38;;;7.49;98.25
62025;BME280;47978;49.118;12.146;2022-10-31T03:07:00;97991.31;;;7.57;98.30
62025;BME280;47978;49.118;12.146;2022-10-31T03:09:34;97990.78;;;7.55;98.71
62025;BME280;47978;49.118;12.146;2022-10-31T03:12:06;97987.47;;;7.58;98.82
62025;BME280;47978;49.118;12.146;2022-10-31T03:14:40;97981.69;;;7.64;98.45
62025;BME280;47978;49.118;12.146;2022-10-31T03:17:13;97993.53;;;7.60;98.82
62025;BME280;47978;49.118;12.146;2022-10-31T03:19:47;97985.28;;;7.60;99.26
62025;BME280;47978;49.118;12.146;2022-10-31T03:22:17;97997.38;;;7.64;99.14
62025;BME280;47978;49.118;12.146;2022-10-31T03:24:46;97997.94;;;7.66;98.98
62025;BME280;47978;49.118;12.146;2022-10-31T03:27:16;97991.59;;;7.81;97.99
62025;BME280;47978;49.118;12.146;2022-10-31T03:29:46;97996.00;;;7.87;97.48
62025;BME280;47978;49.118;12.146;2022-10-31T03:32:17;97999.56;;;7.82;97.73
62025;BME280;47978;49.118;12.146;2022-10-31T03:34:48;98004.25;;;7.87;97.94
62025;BME280;47978;49.118;12.146;2022-10-31T03:37:18;98013.34;;;7.87;97.93
62025;BME280;47978;49.118;12.146;2022-10-31T03:39:46;97999.59;;;7.77;98.83
62025;BME280;47978;49.118;12.146;2022-10-31T03:42:16;98012.81;;;7.75;99.33
62025;BME280;47978;49.118;12.146;2022-10-31T03:44:46;98013.91;;;7.74;99.34
62025;BME280;47978;49.118;12.146;2022-10-31T03:47:16;98013.91;;;7.69;99.74
62025;BME280;47978;49.118;12.146;2022-10-31T03:49:43;98010.31;;;7.74;99.70
62025;BME280;47978;49.118;12.146;2022-10-31T03:52:17;98016.66;;;7.74;99.72
62025;BME280;47978;49.118;12.146;2022-10-31T03:54:48;98022.16;;;7.74;99.58
62025;BME280;47978;49.118;12.146;2022-10-31T03:57:23;98026.28;;;7.82;99.46
62025;BME280;47978;49.118;12.146;2022-10-31T03:59:55;98030.41;;;7.79;99.46
62025;BME280;47978;49.118;12.146;2022-10-31T04:02:28;98028.78;;;7.78;99.33
62025;BME280;47978;49.118;12.146;2022-10-31T04:04:57;98025.72;;;7.85;99.03
62025;BME280;47978;49.118;12.146;2022-10-31T04:07:30;98026.03;;;7.83;98.70
62025;BME280;47978;49.118;12.146;2022-10-31T04:10:00;98022.44;;;7.78;99.19
62025;BME280;47978;49.118;12.146;2022-10-31T04:12:29;98021.88;;;7.81;99.09
62025;BME280;47978;49.118;12.146;2022-10-31T04:14:57;98015.81;;;7.79;99.02
62025;BME280;47978;49.118;12.146;2022-10-31T04:17:27;98016.94;;;7.78;99.30
62025;BME280;47978;49.118;12.146;2022-10-31T04:19:54;98013.38;;;7.77;99.29
62025;BME280;47978;49.118;12.146;2022-10-31T04:22:20;98013.63;;;7.76;99.42
62025;BME280;47978;49.118;12.146;2022-10-31T04:24:48;98011.69;;;7.76;98.93
62025;BME280;47978;49.118;12.146;2022-10-31T04:27:15;98011.69;;;7.97;97.81
62025;BME280;47978;49.118;12.146;2022-10-31T04:29:42;98004.00;;;7.78;98.30
62025;BME280;47978;49.118;12.146;2022-10-31T04:32:13;98005.09;;;7.77;98.18
62025;BME280;47978;49.118;12.146;2022-10-31T04:34:40;98004.53;;;7.65;97.87
62025;BME280;47978;49.118;12.146;2022-10-31T04:37:06;98004.25;;;7.56;97.86
62025;BME280;47978;49.118;12.146;2022-10-31T04:39:33;98006.19;;;7.56;97.68
62025;BME280;47978;49.118;12.146;2022-10-31T04:42:01;98003.41;;;7.46;97.58
62025;BME280;47978;49.118;12.146;2022-10-31T04:44:28;98002.88;;;7.43;97.56
62025;BME280;47978;49.118;12.146;2022-10-31T04:46:54;98008.09;;;7.35;97.29
62025;BME280;47978;49.118;12.146;2022-10-31T04:49:21;97998.44;;;7.32;97.30
62025;BME280;47978;49.118;12.146;2022-10-31T04:51:47;98002.84;;;7.28;97.19
62025;BME280;47978;49.118;12.146;2022-10-31T04:54:14;97997.91;;;7.40;96.00
62025;BME280;47978;49.118;12.146;2022-10-31T04:56:41;98002.06;;;7.43;94.81
62025;BME280;47978;49.118;12.146;2022-10-31T04:59:09;98006.97;;;7.36;94.81
62025;BME280;47978;49.118;12.146;2022-10-31T05:01:36;98004.19;;;7.15;95.51
62025;BME280;47978;49.118;12.146;2022-10-31T05:04:03;98002.25;;;7.11;95.84
62025;BME280;47978;49.118;12.146;2022-10-31T05:06:29;98007.72;;;7.06;96.09
62025;BME280;47978;49.118;12.146;2022-10-31T05:08:56;98007.19;;;7.04;96.28
62025;BME280;47978;49.118;12.146;2022-10-31T05:11:23;98009.09;;;7.08;95.75
62025;BME280;47978;49.118;12.146;2022-10-31T05:13:49;98000.00;;;6.92;95.66
62025;BME280;47978;49.118;12.146;2022-10-31T05:16:17;98005.47;;;6.82;95.77
62025;BME280;47978;49.118;12.146;2022-10-31T05:18:44;98005.47;;;6.87;95.76
62025;BME280;47978;49.118;12.146;2022-10-31T05:21:10;98000.56;;;6.89;95.16
62025;BME280;47978;49.118;12.146;2022-10-31T05:23:37;98011.28;;;6.96;94.47
62025;BME280;47978;49.118;12.146;2022-10-31T05:26:04;98009.06;;;6.93;93.94
62025;BME280;47978;49.118;12.146;2022-10-31T05:28:30;98010.66;;;6.73;95.47
62025;BME280;47978;49.118;12.146;2022-10-31T05:30:57;98007.31;;;6.61;95.88
62025;BME280;47978;49.118;12.146;2022-10-31T05:33:25;98013.34;;;6.58;95.88
62025;BME280;47978;49.118;12.146;2022-10-31T05:35:51;98005.34;;;6.57;95.82
62025;BME280;47978;49.118;12.146;2022-10-31T05:38:18;98010.28;;;6.49;96.22
62025;BME280;47978;49.118;12.146;2022-10-31T05:40:45;98000.66;;;6.47;96.68
62025;BME280;47978;49.118;12.146;2022-10-31T05:43:11;97998.78;;;6.58;95.95
62025;BME280;47978;49.118;12.146;2022-10-31T05:45:38;97993.81;;;6.60;95.87
62025;BME280;47978;49.118;12.146;2022-10-31T05:48:05;97996.81;;;6.53;96.29
62025;BME280;47978;49.118;12.146;2022-10-31T05:50:33;97996.56;;;6.55;96.44
62025;BME280;47978;49.118;12.146;2022-10-31T05:53:01;97995.44;;;6.50;96.98
62025;BME280;47978;49.118;12.146;2022-10-31T05:55:28;97992.41;;;6.47;97.37
62025;BME280;47978;49.118;12.146;2022-10-31T05:57:55;97999.25;;;6.44;97.25
62025;BME280;47978;49.118;12.146;2022-10-31T06:00:23;97992.16;;;6.53;96.66
62025;BME280;47978;49.118;12.146;2022-10-31T06:02:57;97998.47;;;6.54;96.47
62025;BME280;47978;49.118;12.146;2022-10-31T06:05:24;98001.25;;;6.59;96.03
62025;BME280;47978;49.118;12.146;2022-10-31T06:07:52;98006.25;;;6.72;95.10
62025;BME280;47978;49.118;12.146;2022-10-31T06:10:18;98006.56;;;6.81;94.11
62025;BME280;47978;49.118;12.146;2022-10-31T06:12:45;98010.34;;;6.65;94.69
62025;BME280;47978;49.118;12.146;2022-10-31T06:15:11;98014.72;;;6.61;95.38
62025;BME280;47978;49.118;12.146;2022-10-31T06:17:38;98014.41;;;6.57;95.73
62025;BME280;47978;49.118;12.146;2022-10-31T06:20:06;98018.00;;;6.58;95.51
62025;BME280;47978;49.118;12.146;2022-10-31T06:22:33;98015.25;;;6.63;95.04
62025;BME280;47978;49.118;12.146;2022-10-31T06:25:01;98024.03;;;6.60;94.83
62025;BME280;47978;49.118;12.146;2022-10-31T06:27:27;98018.53;;;6.60;95.61
62025;BME280;47978;49.118;12.146;2022-10-31T06:29:54;98028.50;;;6.71;95.59
62025;BME280;47978;49.118;12.146;2022-10-31T06:32:20;98026.63;;;6.82;94.94
62025;BME280;47978;49.118;12.146;2022-10-31T06:34:47;98029.09;;;6.78;95.77
62025;BME280;47978;49.118;12.146;2022-10-31T06:37:14;98023.09;;;6.86;95.96
62025;BME280;47978;49.118;12.146;2022-10-31T06:39:41;98025.53;;;6.88;96.16
62025;BME280;47978;49.118;12.146;2022-10-31T06:42:08;98027.50;;;7.03;96.00
62025;BME280;47978;49.118;12.146;2022-10-31T06:44:35;98028.66;;;7.12;95.90
62025;BME280;47978;49.118;12.146;2022-10-31T06:47:02;98033.59;;;7.10;96.59
62025;BME280;47978;49.118;12.146;2022-10-31T06:49:28;98038.59;;;7.23;96.40
62025;BME280;47978;49.118;12.146;2022-10-31T06:51:55;98040.25;;;7.29;96.44
62025;BME280;47978;49.118;12.146;2022-10-31T06:54:22;98040.00;;;7.36;96.43
62025;BME280;47978;49.118;12.146;2022-10-31T06:56:48;98042.47;;;7.42;96.62
62025;BME280;47978;49.118;12.146;2022-10-31T06:59:16;98044.44;;;7.57;96.19
62025;BME280;47978;49.118;12.146;2022-10-31T07:01:43;98042.78;;;7.61;95.62
62025;BME280;47978;49.118;12.146;2022-10-31T07:04:10;98046.91;;;7.59;95.90
62025;BME280;47978;49.118;12.146;2022-10-31T07:06:37;98040.59;;;7.79;95.47
62025;BME280;47978;49.118;12.146;2022-10-31T07:09:04;98052.72;;;7.93;94.71
62025;BME280;47978;49.118;12.146;2022-10-31T07:11:31;98049.97;;;8.03;94.74
62025;BME280;47978;49.118;12.146;2022-10-31T07:13:57;98047.50;;;8.07;94.76
62025;BME280;47978;49.118;12.146;2022-10-31T07:16:25;98058.50;;;8.07;94.66
62025;BME280;47978;49.118;12.146;2022-10-31T07:18:52;98045.28;;;8.29;94.21
62025;BME280;47978;49.118;12.146;2022-10-31T07:21:18;98051.34;;;8.42;93.79
62025;BME280;47978;49.118;12.146;2022-10-31T07:23:47;98051.06;;;8.48;93.22
62025;BME280;47978;49.118;12.146;2022-10-31T07:26:14;98046.38;;;8.44;93.13
62025;BME280;47978;49.118;12.146;2022-10-31T07:28:40;98046.56;;;8.68;91.52
62025;BME280;47978;49.118;12.146;2022-10-31T07:31:07;98041.63;;;8.65;91.96
62025;BME280;47978;49.118;12.146;2022-10-31T07:33:35;98047.13;;;8.70;92.14
62025;BME280;47978;49.118;12.146;2022-10-31T07:36:01;98043.00;;;8.72;92.17
62025;BME280;47978;49.118;12.146;2022-10-31T07:38:28;98051.50;;;8.86;92.47
62025;BME280;47978;49.118;12.146;2022-10-31T07:40:54;98045.66;;;9.03;92.28
62025;BME280;47978;49.118;12.146;2022-10-31T07:43:21;98046.38;;;9.19;91.89
62025;BME280;47978;49.118;12.146;2022-10-31T07:45:51;98038.31;;;9.33;91.54
62025;BME280;47978;49.118;12.146;2022-10-31T07:48:18;98046.53;;;9.43;90.71
62025;BME280;47978;49.118;12.146;2022-10-31T07:50:46;98044.84;;;9.52;90.28
62025;BME280;47978;49.118;12.146;2022-10-31T07:53:14;98040.94;;;9.53;89.99
62025;BME280;47978;49.118;12.146;2022-10-31T07:55:41;98031.47;;;9.64;89.89
62025;BME280;47978;49.118;12.146;2022-10-31T07:58:09;98041.97;;;9.67;89.96
62025;BME280;47978;49.118;12.146;2022-10-31T08:00:37;98036.72;;;9.71;89.09
62025;BME280;47978;49.118;12.146;2022-10-31T08:03:06;98034.75;;;9.72;89.48
62025;BME280;47978;49.118;12.146;2022-10-31T08:05:34;98040.78;;;9.79;89.44
62025;BME280;47978;49.118;12.146;2022-10-31T08:08:04;98028.06;;;9.83;89.43
62025;BME280;47978;49.118;12.146;2022-10-31T08:10:31;98035.16;;;9.94;88.68
62025;BME280;47978;49.118;12.146;2022-10-31T08:12:59;98031.88;;;9.87;88.22
62025;BME280;47978;49.118;12.146;2022-10-31T08:15:26;98032.41;;;9.89;89.04
62025;BME280;47978;49.118;12.146;2022-10-31T08:17:53;98025.97;;;9.99;88.99
62025;BME280;47978;49.118;12.146;2022-10-31T08:20:20;98023.47;;;10.02;88.60
62025;BME280;47978;49.118;12.146;2022-10-31T08:22:54;98023.06;;;10.19;88.71
62025;BME280;47978;49.118;12.146;2022-10-31T08:25:22;98019.38;;;10.29;88.27
62025;BME280;47978;49.118;12.146;2022-10-31T08:27:50;98012.94;;;10.39;87.87
62025;BME280;47978;49.118;12.146;2022-10-31T08:30:17;98011.28;;;10.38;88.05
62025;BME280;47978;49.118;12.146;2022-10-31T08:32:44;98004.94;;;10.61;87.35
62025;BME280;47978;49.118;12.146;2022-10-31T08:35:10;98002.81;;;10.53;87.72
62025;BME280;47978;49.118;12.146;2022-10-31T08:37:37;98001.19;;;10.76;87.35
62025;BME280;47978;49.118;12.146;2022-10-31T08:40:05;97998.13;;;10.77;86.33
62025;BME280;47978;49.118;12.146;2022-10-31T08:42:33;98001.44;;;10.79;87.14
62025;BME280;47978;49.118;12.146;2022-10-31T08:44:59;97990.13;;;10.76;86.09
62025;BME280;47978;49.118;12.146;2022-10-31T08:47:26;97991.34;;;10.89;86.72
62025;BME280;47978;49.118;12.146;2022-10-31T08:49:52;97985.97;;;10.97;85.88
62025;BME280;47978;49.118;12.146;2022-10-31T08:52:22;97992.34;;;10.98;86.30
62025;BME280;47978;49.118;12.146;2022-10-31T08:55:09;97993.84;;;10.90;86.44
62025;BME280;47978;49.118;12.146;2022-10-31T08:57:37;97990.31;;;11.03;86.35
62025;BME280;47978;49.118;12.146;2022-10-31T09:00:04;97984.66;;;11.14;85.48
62025;BME280;47978;49.118;12.146;2022-10-31T09:02:31;97982.44;;;10.92;84.81
62025;BME280;47978;49.118;12.146;2022-10-31T09:04:58;97987.88;;;11.02;85.19
62025;BME280;47978;49.118;12.146;2022-10-31T09:07:24;97986.69;;;11.08;85.11
62025;BME280;47978;49.118;12.146;2022-10-31T09:09:51;97984.00;;;11.22;85.55
62025;BME280;47978;49.118;12.146;2022-10-31T09:12:18;97988.56;;;11.32;84.78
62025;BME280;47978;49.118;12.146;2022-10-31T09:14:46;97985.69;;;11.18;84.98
62025;BME280;47978;49.118;12.146;2022-10-31T09:17:12;97982.94;;;11.18;85.49
62025;BME280;47978;49.118;12.146;2022-10-31T09:19:39;97980.78;;;11.34;84.25
62025;BME280;47978;49.118;12.146;2022-10-31T09:22:05;97982.06;;;11.41;84.59
62025;BME280;47978;49.118;12.146;2022-10-31T09:24:32;97986.75;;;11.41;84.63
62025;BME280;47978;49.118;12.146;2022-10-31T09:26:59;97989.47;;;11.27;85.66
62025;BME280;47978;49.118;12.146;2022-10-31T09:29:25;97985.84;;;11.26;85.02
62025;BME280;47978;49.118;12.146;2022-10-31T09:31:55;97983.78;;;11.37;85.16
62025;BME280;47978;49.118;12.146;2022-10-31T09:34:22;97985.56;;;11.28;84.77
62025;BME280;47978;49.118;12.146;2022-10-31T09:36:49;97978.75;;;11.20;85.09
62025;BME280;47978;49.118;12.146;2022-10-31T09:39:15;97982.88;;;11.23;84.99
62025;BME280;47978;49.118;12.146;2022-10-31T09:42:02;97980.00;;;10.90;86.80
62025;BME280;47978;49.118;12.146;2022-10-31T09:44:39;97979.03;;;11.00;86.89
62025;BME280;47978;49.118;12.146;2022-10-31T09:47:17;97976.53;;;10.98;87.47
62025;BME280;47978;49.118;12.146;2022-10-31T09:50:00;97976.38;;;10.90;87.78
62025;BME280;47978;49.118;12.146;2022-10-31T09:52:29;97974.63;;;10.75;88.19
62025;BME280;47978;49.118;12.146;2022-10-31T09:54:59;97975.53;;;10.70;89.10
62025;BME280;47978;49.118;12.146;2022-10-31T09:57:31;97964.72;;;10.74;89.40
62025;BME280;47978;49.118;12.146;2022-10-31T09:59:59;97966.00;;;10.82;89.92
62025;BME280;47978;49.118;12.146;2022-10-31T10:02:30;97961.78;;;10.84;89.92
62025;BME280;47978;49.118;12.146;2022-10-31T10:04:59;97965.16;;;10.81;90.09
62025;BME280;47978;49.118;12.146;2022-10-31T10:07:35;97964.97;;;10.96;90.39
62025;BME280;47978;49.118;12.146;2022-10-31T10:10:14;97961.91;;;10.98;90.25
62025;BME280;47978;49.118;12.146;2022-10-31T10:12:51;97964.75;;;11.12;90.00
62025;BME280;47978;49.118;12.146;2022-10-31T10:15:42;97965.47;;;10.98;90.49
62025;BME280;47978;49.118;12.146;2022-10-31T10:18:23;97961.03;;;11.21;89.73
62025;BME280;47978;49.118;12.146;2022-10-31T10:21:00;97949.38;;;11.24;90.64
62025;BME280;47978;49.118;12.146;2022-10-31T10:23:36;97951.22;;;11.29;90.19
62025;BME280;47978;49.118;12.146;2022-10-31T10:26:22;97940.53;;;11.22;90.27
62025;BME280;47978;49.118;12.146;2022-10-31T10:28:54;97946.88;;;11.23;91.24
62025;BME280;47978;49.118;12.146;2022-10-31T10:31:28;97939.63;;;11.27;90.81
62025;BME280;47978;49.118;12.146;2022-10-31T10:34:02;97943.22;;;11.28;90.85
62025;BME280;47978;49.118;12.146;2022-10-31T10:36:36;97940.59;;;11.36;91.59
62025;BME280;47978;49.118;12.146;2022-10-31T10:39:13;97934.75;;;11.38;92.10
62025;BME280;47978;49.118;12.146;2022-10-31T10:41:44;97930.56;;;11.40;91.17
62025;BME280;47978;49.118;12.146;2022-10-31T10:44:11;97935.56;;;11.57;91.69
62025;BME280;47978;49.118;12.146;2022-10-31T10:46:41;97928.72;;;11.68;91.91
62025;BME280;47978;49.118;12.146;2022-10-31T10:49:16;97921.97;;;11.75;91.34
62025;BME280;47978;49.118;12.146;2022-10-31T10:51:46;97913.50;;;11.85;91.05
62025;BME280;47978;49.118;12.146;2022-10-31T10:57:45;97916.34;;;12.12;90.88
62025;BME280;47978;49.118;12.146;2022-10-31T11:00:19;97909.88;;;12.17;90.78
62025;BME280;47978;49.118;12.146;2022-10-31T11:02:46;97909.97;;;12.12;91.42
62025;BME280;47978;49.118;12.146;2022-10-31T11:05:23;97910.19;;;12.29;92.06
62025;BME280;47978;49.118;12.146;2022-10-31T11:07:50;97897.06;;;12.21;91.57
62025;BME280;47978;49.118;12.146;2022-10-31T11:10:16;97890.38;;;12.22;91.92
62025;BME280;47978;49.118;12.146;2022-10-31T11:12:45;97900.75;;;12.30;91.85
62025;BME280;47978;49.118;12.146;2022-10-31T11:15:24;97893.97;;;12.36;91.66
62025;BME280;47978;49.118;12.146;2022-10-31T11:17:54;97887.63;;;12.36;91.99
62025;BME280;47978;49.118;12.146;2022-10-31T11:20:31;97882.34;;;12.62;91.00
62025;BME280;47978;49.118;12.146;2022-10-31T11:23:14;97883.88;;;12.68;90.47
62025;BME280;47978;49.118;12.146;2022-10-31T11:25:48;97883.69;;;12.78;90.73
62025;BME280;47978;49.118;12.146;2022-10-31T11:28:15;97869.88;;;12.87;90.49
62025;BME280;47978;49.118;12.146;2022-10-31T11:30:44;97871.06;;;12.95;90.34
62025;BME280;47978;49.118;12.146;2022-10-31T11:33:17;97870.06;;;12.91;89.82
62025;BME280;47978;49.118;12.146;2022-10-31T11:35:46;97869.16;;;12.95;91.28
62025;BME280;47978;49.118;12.146;2022-10-31T11:38:20;97860.31;;;12.93;90.27
62025;BME280;47978;49.118;12.146;2022-10-31T11:40:52;97864.31;;;13.01;90.87
62025;BME280;47978;49.118;12.146;2022-10-31T11:43:19;97848.19;;;13.12;90.94
62025;BME280;47978;49.118;12.146;2022-10-31T11:45:46;97855.41;;;13.13;90.11
62025;BME280;47978;49.118;12.146;2022-10-31T11:48:16;97846.56;;;13.11;90.86
62025;BME280;47978;49.118;12.146;2022-10-31T11:50:51;97844.31;;;13.13;90.55
62025;BME280;47978;49.118;12.146;2022-10-31T11:53:20;97844.19;;;13.18;90.55
62025;BME280;47978;49.118;12.146;2022-10-31T11:56:00;97844.38;;;13.21;90.98
62025;BME280;47978;49.118;12.146;2022-10-31T11:58:27;97843.84;;;13.33;90.96
62025;BME280;47978;49.118;12.146;2022-10-31T12:00:55;97844.84;;;13.37;90.03
62025;BME280;47978;49.118;12.146;2022-10-31T12:03:38;97841.59;;;13.35;90.45
62025;BME280;47978;49.118;12.146;2022-10-31T12:06:13;97847.66;;;13.23;91.05
62025;BME280;47978;49.118;12.146;2022-10-31T12:08:43;97838.81;;;13.21;90.10
62025;BME280;47978;49.118;12.146;2022-10-31T12:11:18;97836.22;;;13.25;90.72
62025;BME280;47978;49.118;12.146;2022-10-31T12:13:59;97827.81;;;13.30;90.54
62025;BME280;47978;49.118;12.146;2022-10-31T12:16:35;97817.69;;;13.34;90.86
62025;BME280;47978;49.118;12.146;2022-10-31T12:19:04;97815.31;;;13.41;90.57
62025;BME280;47978;49.118;12.146;2022-10-31T12:21:43;97804.25;;;13.50;90.54
62025;BME280;47978;49.118;12.146;2022-10-31T12:24:22;97789.25;;;13.60;89.79
62025;BME280;47978;49.118;12.146;2022-10-31T12:26:59;97788.19;;;13.69;90.17
62025;BME280;47978;49.118;12.146;2022-10-31T12:29:41;97786.25;;;13.79;89.75
62025;BME280;47978;49.118;12.146;2022-10-31T12:32:21;97788.13;;;13.92;89.91
62025;BME280;47978;49.118;12.146;2022-10-31T12:35:08;97785.13;;;14.28;88.06
62025;BME280;47978;49.118;12.146;2022-10-31T12:37:53;97783.22;;;14.46;87.57
62025;BME280;47978;49.118;12.146;2022-10-31T12:40:51;97778.19;;;14.66;86.76
62025;BME280;47978;49.118;12.146;2022-10-31T12:43:33;97777.38;;;14.74;85.87
62025;BME280;47978;49.118;12.146;2022-10-31T12:46:02;97774.13;;;14.80;85.65
62025;BME280;47978;49.118;12.146;2022-10-31T12:48:54;97768.88;;;14.88;84.76
62025;BME280;47978;49.118;12.146;2022-10-31T12:51:29;97773.31;;;14.97;84.89
62025;BME280;47978;49.118;12.146;2022-10-31T12:54:20;97776.09;;;14.89;84.88
62025;BME280;47978;49.118;12.146;2022-10-31T12:56:56;97772.16;;;14.98;84.79
62025;BME280;47978;49.118;12.146;2022-10-31T12:59:30;97771.81;;;15.09;84.40
62025;BME280;47978;49.118;12.146;2022-10-31T13:02:01;97761.97;;;15.02;84.29
62025;BME280;47978;49.118;12.146;2022-10-31T13:04:38;97763.28;;;15.05;84.94
62025;BME280;47978;49.118;12.146;2022-10-31T13:07:11;97762.81;;;15.03;85.12
62025;BME280;47978;49.118;12.146;2022-10-31T13:09:44;97749.69;;;15.03;84.81
62025;BME280;47978;49.118;12.146;2022-10-31T13:12:16;97749.22;;;15.01;85.25
62025;BME280;47978;49.118;12.146;2022-10-31T13:14:47;97751.16;;;15.10;85.53
62025;BME280;47978;49.118;12.146;2022-10-31T13:17:22;97743.97;;;15.17;84.45